sensor_id;sensor_type;location;lat;lon;timestamp;pressure;altitude;pressure_sealevel;temperature;humidity
18813;BME280;9534;51.140;6.296;2023-08-12T00:03:59;104236.34;;;20.54;100.00
18813;BME280;9534;51.140;6.296;2023-08-12T00:08:03;104234.84;;;20.51;100.00
18813;BME280;9534;51.140;6.296;2023-08-12T00:12:07;104227.91;;;20.47;100.00
18813;BME280;9534;51.140;6.296;2023-08-12T00:16:10;104221.50;;;20.47;100.00
18813;BME280;9534;51.140;6.296;2023-08-12T00:20:14;104215.03;;;20.46;100.00
18813;BME280;9534;51.140;6.296;2023-08-12T00:24:16;104210.34;;;20.47;100.00
18813;BME280;9534;51.140;6.296;2023-08-12T00:28:21;104210.34;;;20.47;100.00
18813;BME280;9534;51.140;6.296;2023-08-12T00:32:24;104212.25;;;20.46;100.00
18813;BME280;9534;51.140;6.296;2023-08-12T00:36:27;104210.34;;;20.47;100.00
18813;BME280;9534;51.140;6.296;2023-08-12T00:40:30;104214.56;;;20.43;100.00
18813;BME280;9534;51.140;6.296;2023-08-12T00:44:35;104211.50;;;20.38;100.00
18813;BME280;9534;51.140;6.296;2023-08-12T00:48:38;104210.88;;;20.28;100.00
18813;BME280;9534;51.140;6.296;2023-08-12T00:52:43;104217.06;;;20.38;100.00
18813;BME280;9534;51.140;6.296;2023-08-12T00:56:48;104219.09;;;20.44;100.00
18813;BME280;9534;51.140;6.296;2023-08-12T01:00:52;104214.38;;;20.44;100.00
18813;BME280;9534;51.140;6.296;2023-08-12T01:04:55;104228.78;;;20.48;100.00
18813;BME280;9534;51.140;6.296;2023-08-12T01:08:58;104209.84;;;20.43;100.00
18813;BME280;9534;51.140;6.296;2023-08-12T01:13:05;104212.09;;;20.48;100.00
18813;BME280;9534;51.140;6.296;2023-08-12T01:17:11;104210.34;;;20.47;100.00
18813;BME280;9534;51.140;6.296;2023-08-12T01:21:18;104211.59;;;20.44;100.00
18813;BME280;9534;51.140;6.296;2023-08-12T01:25:25;104210.34;;;20.47;100.00
18813;BME280;9534;51.140;6.296;2023-08-12T01:29:28;104200.44;;;20.44;100.00
18813;BME280;9534;51.140;6.296;2023-08-12T01:33:33;104198.94;;;20.42;100.00
18813;BME280;9534;51.140;6.296;2023-08-12T01:37:37;104205.25;;;20.50;100.00
18813;BME280;9534;51.140;6.296;2023-08-12T01:41:43;104195.94;;;20.43;100.00
18813;BME280;9534;51.140;6.296;2023-08-12T01:45:46;104174.63;;;20.36;100.00
18813;BME280;9534;51.140;6.296;2023-08-12T01:49:51;104179.53;;;20.34;100.00
18813;BME280;9534;51.140;6.296;2023-08-12T01:53:54;104182.31;;;20.34;100.00
18813;BME280;9534;51.140;6.296;2023-08-12T01:57:59;104178.84;;;20.32;100.00
18813;BME280;9534;51.140;6.296;2023-08-12T02:02:02;104189.91;;;20.40;100.00
18813;BME280;9534;51.140;6.296;2023-08-12T02:06:06;104201.34;;;20.45;100.00
18813;BME280;9534;51.140;6.296;2023-08-12T02:10:09;104208.63;;;20.46;100.00
18813;BME280;9534;51.140;6.296;2023-08-12T02:14:13;104199.59;;;20.44;100.00
18813;BME280;9534;51.140;6.296;2023-08-12T02:18:16;104193.53;;;20.40;100.00
18813;BME280;9534;51.140;6.296;2023-08-12T02:22:20;104194.03;;;20.44;100.00
18813;BME280;9534;51.140;6.296;2023-08-12T02:26:23;104197.00;;;20.42;100.00
18813;BME280;9534;51.140;6.296;2023-08-12T02:30:28;104181.19;;;20.43;100.00
18813;BME280;9534;51.140;6.296;2023-08-12T02:34:32;104179.44;;;20.42;100.00
18813;BME280;9534;51.140;6.296;2023-08-12T02:38:35;104186.06;;;20.41;100.00
18813;BME280;9534;51.140;6.296;2023-08-12T02:42:38;104166.59;;;20.41;100.00
18813;BME280;9534;51.140;6.296;2023-08-12T02:46:42;104175.59;;;20.43;100.00
18813;BME280;9534;51.140;6.296;2023-08-12T02:50:45;104168.31;;;20.42;100.00
18813;BME280;9534;51.140;6.296;2023-08-12T02:54:48;104162.91;;;20.40;100.00
18813;BME280;9534;51.140;6.296;2023-08-12T02:58:51;104152.66;;;20.41;100.00
18813;BME280;9534;51.140;6.296;2023-08-12T03:02:55;104155.63;;;20.39;100.00
18813;BME280;9534;51.140;6.296;2023-08-12T03:06:59;104159.66;;;20.37;100.00
18813;BME280;9534;51.140;6.296;2023-08-12T03:11:02;104135.00;;;20.34;100.00
18813;BME280;9534;51.140;6.296;2023-08-12T03:15:06;104136.53;;;20.36;100.00
18813;BME280;9534;51.140;6.296;2023-08-12T03:19:11;104126.66;;;20.34;100.00
18813;BME280;9534;51.140;6.296;2023-08-12T03:23:15;104122.53;;;20.30;100.00
18813;BME280;9534;51.140;6.296;2023-08-12T03:27:18;104112.44;;;20.29;100.00
18813;BME280;9534;51.140;6.296;2023-08-12T03:31:21;104100.66;;;20.27;100.00
18813;BME280;9534;51.140;6.296;2023-08-12T03:35:28;104099.09;;;20.24;100.00
18813;BME280;9534;51.140;6.296;2023-08-12T03:39:31;104084.03;;;20.19;100.00
18813;BME280;9534;51.140;6.296;2023-08-12T03:43:35;104070.22;;;20.11;100.00
18813;BME280;9534;51.140;6.296;2023-08-12T03:47:40;104075.78;;;20.11;100.00
18813;BME280;9534;51.140;6.296;2023-08-12T03:51:45;104089.84;;;20.09;100.00
18813;BME280;9534;51.140;6.296;2023-08-12T03:55:48;104093.44;;;20.18;100.00
18813;BME280;9534;51.140;6.296;2023-08-12T03:59:52;104091.50;;;20.18;100.00
18813;BME280;9534;51.140;6.296;2023-08-12T04:03:55;104096.97;;;20.26;100.00
18813;BME280;9534;51.140;6.296;2023-08-12T04:08:00;104101.31;;;20.29;100.00
18813;BME280;9534;51.140;6.296;2023-08-12T04:12:03;104099.22;;;20.31;100.00
18813;BME280;9534;51.140;6.296;2023-08-12T04:16:06;104111.19;;;20.31;100.00
18813;BME280;9534;51.140;6.296;2023-08-12T04:20:10;104100.25;;;20.30;100.00
18813;BME280;9534;51.140;6.296;2023-08-12T04:24:15;104090.56;;;20.26;100.00
18813;BME280;9534;51.140;6.296;2023-08-12T04:28:18;104083.94;;;20.27;100.00
18813;BME280;9534;51.140;6.296;2023-08-12T04:32:23;104090.19;;;20.29;100.00
18813;BME280;9534;51.140;6.296;2023-08-12T04:36:28;104080.41;;;20.33;100.00
18813;BME280;9534;51.140;6.296;2023-08-12T04:40:37;104079.53;;;20.32;100.00
18813;BME280;9534;51.140;6.296;2023-08-12T04:44:41;104082.13;;;20.34;100.00
18813;BME280;9534;51.140;6.296;2023-08-12T04:48:44;104085.59;;;20.36;100.00
18813;BME280;9534;51.140;6.296;2023-08-12T04:52:48;104082.81;;;20.36;100.00
18813;BME280;9534;51.140;6.296;2023-08-12T04:56:54;104077.25;;;20.36;100.00
18813;BME280;9534;51.140;6.296;2023-08-12T05:00:57;104073.41;;;20.37;100.00
18813;BME280;9534;51.140;6.296;2023-08-12T05:05:01;104063.78;;;20.39;100.00
18813;BME280;9534;51.140;6.296;2023-08-12T05:09:07;104065.06;;;20.37;100.00
18813;BME280;9534;51.140;6.296;2023-08-12T05:13:12;104063.91;;;20.46;100.00
18813;BME280;9534;51.140;6.296;2023-08-12T05:17:15;104066.94;;;20.51;100.00
18813;BME280;9534;51.140;6.296;2023-08-12T05:21:19;104068.66;;;20.52;100.00
18813;BME280;9534;51.140;6.296;2023-08-12T05:25:22;104074.22;;;20.52;100.00
18813;BME280;9534;51.140;6.296;2023-08-12T05:29:26;104071.19;;;20.47;100.00
18813;BME280;9534;51.140;6.296;2023-08-12T05:33:29;104070.03;;;20.41;100.00
18813;BME280;9534;51.140;6.296;2023-08-12T05:37:33;104081.53;;;20.38;100.00
18813;BME280;9534;51.140;6.296;2023-08-12T05:41:36;104071.00;;;20.34;100.00
18813;BME280;9534;51.140;6.296;2023-08-12T05:45:40;104071.75;;;20.28;100.00
18813;BME280;9534;51.140;6.296;2023-08-12T05:49:43;104076.38;;;20.21;100.00
18813;BME280;9534;51.140;6.296;2023-08-12T05:53:48;104075.00;;;20.17;100.00
18813;BME280;9534;51.140;6.296;2023-08-12T05:57:51;104054.25;;;20.05;100.00
18813;BME280;9534;51.140;6.296;2023-08-12T06:01:55;104043.50;;;20.02;100.00
18813;BME280;9534;51.140;6.296;2023-08-12T06:05:58;104047.72;;;19.98;100.00
18813;BME280;9534;51.140;6.296;2023-08-12T06:10:01;104026.34;;;19.98;100.00
18813;BME280;9534;51.140;6.296;2023-08-12T06:14:04;104029.69;;;19.94;100.00
18813;BME280;9534;51.140;6.296;2023-08-12T06:18:08;103995.34;;;19.87;100.00
18813;BME280;9534;51.140;6.296;2023-08-12T06:22:12;104016.63;;;19.80;100.00
18813;BME280;9534;51.140;6.296;2023-08-12T06:26:15;104012.41;;;19.84;100.00
18813;BME280;9534;51.140;6.296;2023-08-12T06:30:18;104007.59;;;19.78;100.00
18813;BME280;9534;51.140;6.296;2023-08-12T06:34:22;103978.81;;;19.71;100.00
18813;BME280;9534;51.140;6.296;2023-08-12T06:38:26;103961.38;;;19.77;100.00
18813;BME280;9534;51.140;6.296;2023-08-12T06:42:28;103926.31;;;19.76;100.00
18813;BME280;9534;51.140;6.296;2023-08-12T06:46:32;103936.78;;;19.88;100.00
18813;BME280;9534;51.140;6.296;2023-08-12T06:50:36;103937.63;;;19.89;100.00
18813;BME280;9534;51.140;6.296;2023-08-12T06:54:39;103934.16;;;19.87;100.00
18813;BME280;9534;51.140;6.296;2023-08-12T06:58:43;103943.75;;;19.99;100.00
18813;BME280;9534;51.140;6.296;2023-08-12T07:02:45;103956.63;;;20.00;100.00
18813;BME280;9534;51.140;6.296;2023-08-12T07:06:50;103964.56;;;20.03;100.00
18813;BME280;9534;51.140;6.296;2023-08-12T07:10:53;103954.88;;;19.99;100.00
18813;BME280;9534;51.140;6.296;2023-08-12T07:14:56;103951.56;;;20.03;100.00
18813;BME280;9534;51.140;6.296;2023-08-12T07:18:59;103957.78;;;20.20;100.00
18813;BME280;9534;51.140;6.296;2023-08-12T07:23:03;103954.63;;;20.23;100.00
18813;BME280;9534;51.140;6.296;2023-08-12T07:27:06;103948.69;;;20.26;100.00
18813;BME280;9534;51.140;6.296;2023-08-12T07:31:09;103956.25;;;20.32;100.00
18813;BME280;9534;51.140;6.296;2023-08-12T07:35:12;103953.38;;;20.40;100.00
18813;BME280;9534;51.140;6.296;2023-08-12T07:39:16;103965.97;;;20.57;100.00
18813;BME280;9534;51.140;6.296;2023-08-12T07:43:19;103971.03;;;20.68;100.00
18813;BME280;9534;51.140;6.296;2023-08-12T07:47:22;103974.34;;;20.78;100.00
18813;BME280;9534;51.140;6.296;2023-08-12T07:51:25;103964.94;;;20.79;100.00
18813;BME280;9534;51.140;6.296;2023-08-12T07:55:29;103969.34;;;20.88;100.00
18813;BME280;9534;51.140;6.296;2023-08-12T07:59:33;103983.72;;;21.06;100.00
18813;BME280;9534;51.140;6.296;2023-08-12T08:03:36;103997.25;;;21.29;100.00
18813;BME280;9534;51.140;6.296;2023-08-12T08:07:40;104038.50;;;21.40;100.00
18813;BME280;9534;51.140;6.296;2023-08-12T08:11:44;104036.28;;;21.29;100.00
18813;BME280;9534;51.140;6.296;2023-08-12T08:15:47;104065.78;;;21.24;100.00
18813;BME280;9534;51.140;6.296;2023-08-12T08:19:51;104060.94;;;21.12;100.00
18813;BME280;9534;51.140;6.296;2023-08-12T08:23:54;104081.59;;;21.03;100.00
18813;BME280;9534;51.140;6.296;2023-08-12T08:27:58;104085.34;;;21.10;100.00
18813;BME280;9534;51.140;6.296;2023-08-12T08:32:01;104101.66;;;21.13;100.00
18813;BME280;9534;51.140;6.296;2023-08-12T08:36:04;104112.03;;;21.18;100.00
18813;BME280;9534;51.140;6.296;2023-08-12T08:40:08;104131.31;;;21.20;100.00
18813;BME280;9534;51.140;6.296;2023-08-12T08:44:12;104156.28;;;21.28;100.00
18813;BME280;9534;51.140;6.296;2023-08-12T08:48:17;104177.94;;;21.12;100.00
18813;BME280;9534;51.140;6.296;2023-08-12T08:52:20;104187.44;;;21.17;100.00
18813;BME280;9534;51.140;6.296;2023-08-12T08:56:24;104201.75;;;21.28;100.00
18813;BME280;9534;51.140;6.296;2023-08-12T09:00:31;104217.41;;;21.29;100.00
18813;BME280;9534;51.140;6.296;2023-08-12T09:04:35;104236.41;;;21.40;100.00
18813;BME280;9534;51.140;6.296;2023-08-12T09:08:38;104262.06;;;21.50;100.00
18813;BME280;9534;51.140;6.296;2023-08-12T09:12:43;104273.69;;;21.54;100.00
18813;BME280;9534;51.140;6.296;2023-08-12T09:16:50;104333.66;;;21.64;100.00
18813;BME280;9534;51.140;6.296;2023-08-12T09:20:53;104387.72;;;21.92;100.00
18813;BME280;9534;51.140;6.296;2023-08-12T09:24:56;104494.13;;;22.04;100.00
18813;BME280;9534;51.140;6.296;2023-08-12T09:29:00;104514.56;;;21.67;100.00
18813;BME280;9534;51.140;6.296;2023-08-12T09:33:05;104488.09;;;21.63;100.00
18813;BME280;9534;51.140;6.296;2023-08-12T09:37:09;104434.06;;;21.64;100.00
18813;BME280;9534;51.140;6.296;2023-08-12T09:41:12;104371.47;;;21.81;100.00
18813;BME280;9534;51.140;6.296;2023-08-12T09:45:16;104279.06;;;21.55;100.00
18813;BME280;9534;51.140;6.296;2023-08-12T09:49:25;104155.72;;;21.18;100.00
18813;BME280;9534;51.140;6.296;2023-08-12T09:53:29;104079.13;;;21.28;100.00
18813;BME280;9534;51.140;6.296;2023-08-12T09:57:32;104041.69;;;21.17;100.00
18813;BME280;9534;51.140;6.296;2023-08-12T10:01:36;103992.72;;;21.08;100.00
18813;BME280;9534;51.140;6.296;2023-08-12T10:05:41;103975.94;;;21.01;100.00
18813;BME280;9534;51.140;6.296;2023-08-12T10:09:45;103948.41;;;20.92;100.00
18813;BME280;9534;51.140;6.296;2023-08-12T10:13:48;103933.97;;;21.03;100.00
18813;BME280;9534;51.140;6.296;2023-08-12T10:17:51;103925.47;;;21.11;100.00
18813;BME280;9534;51.140;6.296;2023-08-12T10:21:56;103927.72;;;21.21;100.00
18813;BME280;9534;51.140;6.296;2023-08-12T10:26:00;103928.66;;;21.28;100.00
18813;BME280;9534;51.140;6.296;2023-08-12T10:30:04;103932.66;;;21.47;100.00
18813;BME280;9534;51.140;6.296;2023-08-12T10:34:17;103950.22;;;21.47;100.00
18813;BME280;9534;51.140;6.296;2023-08-12T10:38:21;103948.59;;;21.59;100.00
18813;BME280;9534;51.140;6.296;2023-08-12T10:42:39;103955.06;;;21.60;100.00
18813;BME280;9534;51.140;6.296;2023-08-12T10:46:42;103971.44;;;21.69;100.00
18813;BME280;9534;51.140;6.296;2023-08-12T10:50:53;104008.97;;;21.94;100.00
18813;BME280;9534;51.140;6.296;2023-08-12T10:59:21;104120.56;;;21.94;100.00
18813;BME280;9534;51.140;6.296;2023-08-12T11:03:44;104208.63;;;22.45;100.00
18813;BME280;9534;51.140;6.296;2023-08-12T11:07:48;104431.09;;;23.01;100.00
18813;BME280;9534;51.140;6.296;2023-08-12T11:11:56;104663.22;;;23.49;100.00
18813;BME280;9534;51.140;6.296;2023-08-12T11:16:07;104493.31;;;24.12;100.00
18813;BME280;9534;51.140;6.296;2023-08-12T11:20:11;104055.22;;;23.50;100.00
18813;BME280;9534;51.140;6.296;2023-08-12T11:24:15;104057.41;;;23.74;100.00
18813;BME280;9534;51.140;6.296;2023-08-12T11:28:18;103870.88;;;23.49;100.00
18813;BME280;9534;51.140;6.296;2023-08-12T11:32:23;104189.66;;;21.21;100.00
18813;BME280;9534;51.140;6.296;2023-08-12T11:36:26;104535.75;;;20.64;100.00
18813;BME280;9534;51.140;6.296;2023-08-12T11:40:34;104172.78;;;20.28;100.00
18813;BME280;9534;51.140;6.296;2023-08-12T11:44:39;104100.34;;;20.22;100.00
18813;BME280;9534;51.140;6.296;2023-08-12T11:48:44;103997.78;;;20.04;100.00
18813;BME280;9534;51.140;6.296;2023-08-12T11:52:50;103986.00;;;20.17;100.00
18813;BME280;9534;51.140;6.296;2023-08-12T11:56:53;103965.09;;;20.21;100.00
18813;BME280;9534;51.140;6.296;2023-08-12T12:00:58;103955.75;;;20.28;100.00
18813;BME280;9534;51.140;6.296;2023-08-12T12:05:06;103944.91;;;20.48;100.00
18813;BME280;9534;51.140;6.296;2023-08-12T12:09:10;103949.16;;;20.65;100.00
18813;BME280;9534;51.140;6.296;2023-08-12T12:13:13;103949.81;;;20.67;100.00
18813;BME280;9534;51.140;6.296;2023-08-12T12:17:16;103918.75;;;20.84;100.00
18813;BME280;9534;51.140;6.296;2023-08-12T12:21:21;103918.50;;;20.79;100.00
18813;BME280;9534;51.140;6.296;2023-08-12T12:25:24;103926.47;;;20.68;100.00
18813;BME280;9534;51.140;6.296;2023-08-12T12:29:28;103910.44;;;20.70;100.00
18813;BME280;9534;51.140;6.296;2023-08-12T12:33:31;103909.94;;;20.81;100.00
18813;BME280;9534;51.140;6.296;2023-08-12T12:37:36;103907.94;;;20.75;100.00
18813;BME280;9534;51.140;6.296;2023-08-12T12:41:39;103927.69;;;20.80;100.00
18813;BME280;9534;51.140;6.296;2023-08-12T12:45:42;103917.91;;;20.13;100.00
18813;BME280;9534;51.140;6.296;2023-08-12T12:49:45;103914.13;;;20.20;100.00
18813;BME280;9534;51.140;6.296;2023-08-12T12:53:49;103949.97;;;20.80;100.00
18813;BME280;9534;51.140;6.296;2023-08-12T12:57:52;104062.25;;;21.99;100.00
18813;BME280;9534;51.140;6.296;2023-08-12T13:01:55;104433.88;;;22.59;100.00
18813;BME280;9534;51.140;6.296;2023-08-12T13:05:58;104633.25;;;23.08;100.00
18813;BME280;9534;51.140;6.296;2023-08-12T13:10:04;103886.56;;;23.11;100.00
18813;BME280;9534;51.140;6.296;2023-08-12T13:14:07;102806.91;;;23.58;100.00
18813;BME280;9534;51.140;6.296;2023-08-12T13:18:10;101566.69;;;23.93;100.00
18813;BME280;9534;51.140;6.296;2023-08-12T13:22:13;101358.53;;;24.59;100.00
18813;BME280;9534;51.140;6.296;2023-08-12T13:26:18;101180.97;;;24.11;100.00
18813;BME280;9534;51.140;6.296;2023-08-12T13:30:21;101201.03;;;24.28;100.00
18813;BME280;9534;51.140;6.296;2023-08-12T13:34:24;100976.56;;;24.41;100.00
18813;BME280;9534;51.140;6.296;2023-08-12T13:38:27;100952.16;;;24.13;100.00
18813;BME280;9534;51.140;6.296;2023-08-12T13:42:32;100957.06;;;23.93;100.00
18813;BME280;9534;51.140;6.296;2023-08-12T13:46:35;100863.75;;;25.16;100.00
18813;BME280;9534;51.140;6.296;2023-08-12T13:50:38;100755.69;;;24.73;100.00
18813;BME280;9534;51.140;6.296;2023-08-12T13:54:41;100711.84;;;24.40;100.00
18813;BME280;9534;51.140;6.296;2023-08-12T13:58:45;100696.97;;;24.21;100.00
18813;BME280;9534;51.140;6.296;2023-08-12T14:02:48;100648.72;;;25.26;100.00
18813;BME280;9534;51.140;6.296;2023-08-12T14:06:52;100615.16;;;25.40;100.00
18813;BME280;9534;51.140;6.296;2023-08-12T14:10:55;100583.50;;;25.80;100.00
18813;BME280;9534;51.140;6.296;2023-08-12T14:15:00;100575.75;;;26.04;100.00
18813;BME280;9534;51.140;6.296;2023-08-12T14:19:05;100563.91;;;26.07;100.00
18813;BME280;9534;51.140;6.296;2023-08-12T14:23:08;100566.56;;;26.38;100.00
18813;BME280;9534;51.140;6.296;2023-08-12T14:27:11;100564.50;;;26.31;100.00
18813;BME280;9534;51.140;6.296;2023-08-12T14:31:16;100563.31;;;26.80;100.00
18813;BME280;9534;51.140;6.296;2023-08-12T14:35:19;100571.53;;;26.41;100.00
18813;BME280;9534;51.140;6.296;2023-08-12T14:39:23;100578.16;;;25.97;100.00
18813;BME280;9534;51.140;6.296;2023-08-12T14:43:26;100578.81;;;25.35;100.00
18813;BME280;9534;51.140;6.296;2023-08-12T14:47:30;100577.16;;;26.55;100.00
18813;BME280;9534;51.140;6.296;2023-08-12T14:51:33;100570.38;;;25.94;100.00
18813;BME280;9534;51.140;6.296;2023-08-12T14:55:36;100565.66;;;26.30;100.00
18813;BME280;9534;51.140;6.296;2023-08-12T14:59:39;100567.88;;;27.42;100.00
18813;BME280;9534;51.140;6.296;2023-08-12T15:03:44;100572.13;;;26.87;100.00
18813;BME280;9534;51.140;6.296;2023-08-12T15:07:47;100575.75;;;27.62;100.00
18813;BME280;9534;51.140;6.296;2023-08-12T15:11:50;100584.38;;;26.69;100.00
18813;BME280;9534;51.140;6.296;2023-08-12T15:15:54;100572.44;;;26.02;100.00
18813;BME280;9534;51.140;6.296;2023-08-12T15:19:59;100573.91;;;26.83;100.00
18813;BME280;9534;51.140;6.296;2023-08-12T15:24:02;100551.50;;;25.27;100.00
18813;BME280;9534;51.140;6.296;2023-08-12T15:28:06;100553.84;;;25.20;100.00
18813;BME280;9534;51.140;6.296;2023-08-12T15:32:09;100573.34;;;25.84;100.00
18813;BME280;9534;51.140;6.296;2023-08-12T15:36:14;100563.06;;;25.79;100.00
18813;BME280;9534;51.140;6.296;2023-08-12T15:40:17;100563.06;;;26.90;100.00
18813;BME280;9534;51.140;6.296;2023-08-12T15:44:21;100568.81;;;26.85;100.00
18813;BME280;9534;51.140;6.296;2023-08-12T15:48:24;100557.94;;;26.70;100.00
18813;BME280;9534;51.140;6.296;2023-08-12T15:52:29;100561.66;;;27.84;100.00
18813;BME280;9534;51.140;6.296;2023-08-12T15:56:34;100559.06;;;26.83;100.00
18813;BME280;9534;51.140;6.296;2023-08-12T16:00:39;100561.00;;;26.12;100.00
18813;BME280;9534;51.140;6.296;2023-08-12T16:04:44;100558.44;;;26.37;100.00
18813;BME280;9534;51.140;6.296;2023-08-12T16:08:51;100562.22;;;26.33;100.00
18813;BME280;9534;51.140;6.296;2023-08-12T16:13:14;100572.13;;;26.17;100.00
18813;BME280;9534;51.140;6.296;2023-08-12T16:17:20;100570.03;;;26.71;100.00
18813;BME280;9534;51.140;6.296;2023-08-12T16:21:23;100572.59;;;28.41;100.00
18813;BME280;9534;51.140;6.296;2023-08-12T16:25:27;100592.06;;;28.21;100.00
18813;BME280;9534;51.140;6.296;2023-08-12T16:29:31;100580.38;;;26.84;100.00
18813;BME280;9534;51.140;6.296;2023-08-12T16:33:34;100559.53;;;26.49;100.00
18813;BME280;9534;51.140;6.296;2023-08-12T16:37:37;100560.63;;;26.40;100.00
18813;BME280;9534;51.140;6.296;2023-08-12T16:41:42;100551.50;;;26.70;100.00
18813;BME280;9534;51.140;6.296;2023-08-12T16:45:45;100562.50;;;26.44;100.00
18813;BME280;9534;51.140;6.296;2023-08-12T16:49:48;100567.72;;;26.37;100.00
18813;BME280;9534;51.140;6.296;2023-08-12T16:53:51;100568.91;;;26.45;100.00
18813;BME280;9534;51.140;6.296;2023-08-12T16:57:55;100580.34;;;26.00;100.00
18813;BME280;9534;51.140;6.296;2023-08-12T17:01:58;100567.00;;;25.65;100.00
18813;BME280;9534;51.140;6.296;2023-08-12T17:06:01;100569.94;;;26.14;100.00
18813;BME280;9534;51.140;6.296;2023-08-12T17:10:04;100557.53;;;25.61;100.00
18813;BME280;9534;51.140;6.296;2023-08-12T17:14:09;100570.44;;;25.89;100.00
18813;BME280;9534;51.140;6.296;2023-08-12T17:18:12;100567.94;;;25.74;100.00
18813;BME280;9534;51.140;6.296;2023-08-12T17:22:15;100566.16;;;26.32;100.00
18813;BME280;9534;51.140;6.296;2023-08-12T17:26:20;100580.66;;;25.26;100.00
18813;BME280;9534;51.140;6.296;2023-08-12T17:30:24;100582.44;;;25.03;100.00
18813;BME280;9534;51.140;6.296;2023-08-12T17:34:28;100573.03;;;25.13;100.00
18813;BME280;9534;51.140;6.296;2023-08-12T17:38:31;100579.56;;;25.54;100.00
18813;BME280;9534;51.140;6.296;2023-08-12T17:42:34;100577.41;;;25.19;100.00
18813;BME280;9534;51.140;6.296;2023-08-12T17:46:38;100580.47;;;25.17;100.00
18813;BME280;9534;51.140;6.296;2023-08-12T17:50:41;100576.53;;;25.18;100.00
18813;BME280;9534;51.140;6.296;2023-08-12T17:54:45;100577.34;;;24.74;100.00
18813;BME280;9534;51.140;6.296;2023-08-12T17:58:48;100580.22;;;24.69;100.00
18813;BME280;9534;51.140;6.296;2023-08-12T18:02:53;100576.81;;;24.53;100.00
18813;BME280;9534;51.140;6.296;2023-08-12T18:06:56;100575.50;;;24.27;100.00
18813;BME280;9534;51.140;6.296;2023-08-12T18:10:59;100581.44;;;24.02;100.00
18813;BME280;9534;51.140;6.296;2023-08-12T18:15:03;100585.00;;;24.08;100.00
18813;BME280;9534;51.140;6.296;2023-08-12T18:19:10;100582.38;;;24.16;100.00
18813;BME280;9534;51.140;6.296;2023-08-12T18:23:13;100589.53;;;23.80;100.00
18813;BME280;9534;51.140;6.296;2023-08-12T18:27:16;100591.31;;;23.15;100.00
18813;BME280;9534;51.140;6.296;2023-08-12T18:31:19;100592.19;;;22.82;100.00
18813;BME280;9534;51.140;6.296;2023-08-12T18:35:24;100596.28;;;22.56;100.00
18813;BME280;9534;51.140;6.296;2023-08-12T18:39:27;100593.06;;;22.29;100.00
18813;BME280;9534;51.140;6.296;2023-08-12T18:43:30;100593.44;;;22.13;100.00
18813;BME280;9534;51.140;6.296;2023-08-12T18:47:33;100587.13;;;21.92;100.00
18813;BME280;9534;51.140;6.296;2023-08-12T18:51:37;100595.56;;;21.67;100.00
18813;BME280;9534;51.140;6.296;2023-08-12T18:55:40;100580.88;;;21.42;100.00
18813;BME280;9534;51.140;6.296;2023-08-12T18:59:44;100598.47;;;21.22;100.00
18813;BME280;9534;51.140;6.296;2023-08-12T19:03:52;100602.06;;;20.88;100.00
18813;BME280;9534;51.140;6.296;2023-08-12T19:07:56;100633.97;;;20.51;100.00
18813;BME280;9534;51.140;6.296;2023-08-12T19:11:59;100680.91;;;20.27;100.00
18813;BME280;9534;51.140;6.296;2023-08-12T19:16:02;100712.19;;;20.08;100.00
18813;BME280;9534;51.140;6.296;2023-08-12T19:20:06;100739.03;;;19.88;100.00
18813;BME280;9534;51.140;6.296;2023-08-12T19:24:11;100797.31;;;19.46;100.00
18813;BME280;9534;51.140;6.296;2023-08-12T19:28:15;100838.47;;;19.28;100.00
18813;BME280;9534;51.140;6.296;2023-08-12T19:32:18;100876.06;;;19.14;100.00
18813;BME280;9534;51.140;6.296;2023-08-12T19:36:22;100891.34;;;19.16;100.00
18813;BME280;9534;51.140;6.296;2023-08-12T19:40:26;100882.31;;;19.04;100.00
18813;BME280;9534;51.140;6.296;2023-08-12T19:44:30;100877.91;;;19.08;100.00
18813;BME280;9534;51.140;6.296;2023-08-12T19:48:33;100889.91;;;18.92;100.00
18813;BME280;9534;51.140;6.296;2023-08-12T19:52:36;100977.41;;;18.78;100.00
18813;BME280;9534;51.140;6.296;2023-08-12T19:56:41;101053.38;;;18.77;100.00
18813;BME280;9534;51.140;6.296;2023-08-12T20:00:44;101084.72;;;18.62;100.00
18813;BME280;9534;51.140;6.296;2023-08-12T20:04:48;101124.28;;;18.73;100.00
18813;BME280;9534;51.140;6.296;2023-08-12T20:08:51;101151.38;;;18.55;100.00
18813;BME280;9534;51.140;6.296;2023-08-12T20:12:56;101212.94;;;18.41;100.00
18813;BME280;9534;51.140;6.296;2023-08-12T20:17:01;101246.44;;;18.28;100.00
18813;BME280;9534;51.140;6.296;2023-08-12T20:21:05;101311.03;;;18.17;100.00
18813;BME280;9534;51.140;6.296;2023-08-12T20:25:11;101389.34;;;18.12;100.00
18813;BME280;9534;51.140;6.296;2023-08-12T20:29:15;101421.63;;;18.07;100.00
18813;BME280;9534;51.140;6.296;2023-08-12T20:33:20;101436.28;;;17.96;100.00
18813;BME280;9534;51.140;6.296;2023-08-12T20:37:24;101437.16;;;17.85;100.00
18813;BME280;9534;51.140;6.296;2023-08-12T20:41:28;101488.56;;;17.81;100.00
18813;BME280;9534;51.140;6.296;2023-08-12T20:45:33;101501.66;;;17.74;100.00
18813;BME280;9534;51.140;6.296;2023-08-12T20:49:37;101534.88;;;17.74;100.00
18813;BME280;9534;51.140;6.296;2023-08-12T20:53:40;101548.06;;;17.90;100.00
18813;BME280;9534;51.140;6.296;2023-08-12T20:57:43;101547.19;;;17.78;100.00
18813;BME280;9534;51.140;6.296;2023-08-12T21:01:50;101550.75;;;17.67;100.00
18813;BME280;9534;51.140;6.296;2023-08-12T21:05:53;101559.06;;;17.67;100.00
18813;BME280;9534;51.140;6.296;2023-08-12T21:09:56;101575.97;;;17.59;100.00
18813;BME280;9534;51.140;6.296;2023-08-12T21:13:59;101597.59;;;17.50;100.00
18813;BME280;9534;51.140;6.296;2023-08-12T21:18:03;101631.97;;;17.43;100.00
18813;BME280;9534;51.140;6.296;2023-08-12T21:22:07;101696.47;;;17.43;100.00